Time;durP1;ratioP1;P1;durP2;ratioP2;P2;SDS_P1;SDS_P2;PMS_P1;PMS_P2;Temp;Humidity;BMP_temperature;BMP_pressure;BME280_temperature;BME280_humidity;BME280_pressure;Samples;Min_cycle;Max_cycle;Signal;HPM_P1;HPM_P2
2023/06/13 00:03:02;;;;;;;12.70;3.40;;;;;;;14.07;58.81;100378.30;105991;1259;60382;-65
2023/06/13 00:05:51;;;;;;;10.20;3.70;;;;;;;14.04;58.76;100378.90;106026;1257;59889;-66
2023/06/13 00:08:40;;;;;;;10.40;3.40;;;;;;;14.01;58.44;100377.62;106030;1260;72838;-68
2023/06/13 00:11:28;;;;;;;10.80;3.40;;;;;;;13.95;57.97;100373.39;109236;1258;66949;-66
2023/06/13 00:14:19;;;;;;;11.30;3.40;;;;;;;13.92;57.87;100376.04;109280;1258;72727;-66
2023/06/13 00:17:07;;;;;;;12.70;3.40;;;;;;;13.88;57.29;100374.55;109214;1254;58968;-67
2023/06/13 00:19:56;;;;;;;11.20;3.70;;;;;;;13.86;57.44;100367.45;109213;1254;60367;-66
2023/06/13 00:22:45;;;;;;;12.20;3.50;;;;;;;13.84;57.36;100367.81;109267;1254;72145;-67
2023/06/13 00:25:33;;;;;;;15.00;3.80;;;;;;;13.81;57.16;100370.75;109304;1254;68372;-63
2023/06/13 00:28:21;;;;;;;9.70;2.90;;;;;;;13.77;57.23;100368.70;109390;1254;73294;-66
2023/06/13 00:31:10;;;;;;;9.10;2.90;;;;;;;13.74;56.98;100371.52;109387;1254;57911;-66
2023/06/13 00:34:00;;;;;;;11.30;3.00;;;;;;;13.70;56.91;100370.80;109440;1256;60106;-66
2023/06/13 00:36:49;;;;;;;11.90;3.00;;;;;;;13.66;56.68;100367.42;109412;1256;71396;-65
2023/06/13 00:39:37;;;;;;;12.50;2.80;;;;;;;13.62;56.78;100370.75;109254;1254;68701;-64
2023/06/13 00:42:27;;;;;;;10.30;3.20;;;;;;;13.58;56.88;100375.73;109379;1254;72357;-64
2023/06/13 00:45:35;;;;;;;12.90;3.80;;;;;;;13.56;56.76;100373.42;109380;1254;57715;-64
2023/06/13 00:48:23;;;;;;;8.30;2.80;;;;;;;13.51;56.85;100371.14;109515;1254;60379;-64
2023/06/13 00:51:12;;;;;;;11.70;3.20;;;;;;;13.48;56.78;100375.49;109247;1254;70715;-64
2023/06/13 00:54:01;;;;;;;11.40;3.20;;;;;;;13.45;56.80;100374.64;109407;1254;67894;-64
2023/06/13 00:56:49;;;;;;;8.90;3.00;;;;;;;13.42;56.79;100374.06;109349;1259;72680;-65
2023/06/13 00:59:39;;;;;;;10.10;2.80;;;;;;;13.40;56.86;100370.95;109375;1254;57596;-67
2023/06/13 01:02:27;;;;;;;10.60;3.00;;;;;;;13.39;56.83;100369.35;109167;1254;58859;-67
2023/06/13 01:05:15;;;;;;;9.80;3.40;;;;;;;13.38;56.97;100369.08;109243;1254;73257;-66
2023/06/13 01:08:19;;;;;;;8.60;3.40;;;;;;;13.36;56.84;100366.19;109022;1258;68656;-66
2023/06/13 01:11:28;;;;;;;9.70;3.00;;;;;;;13.33;56.92;100367.61;109019;1259;72443;-66
2023/06/13 01:14:40;;;;;;;9.90;3.00;;;;;;;13.28;56.92;100367.52;109026;1258;57824;-68
2023/06/13 01:17:36;;;;;;;11.00;3.20;;;;;;;13.20;57.26;100365.47;109083;1258;60237;-64
2023/06/13 01:20:27;;;;;;;10.10;2.70;;;;;;;13.15;57.33;100366.14;108981;1258;70818;-66
2023/06/13 01:24:12;;;;;;;9.60;3.20;;;;;;;13.08;57.69;100366.69;109012;1258;65791;-67
2023/06/13 01:27:02;;;;;;;8.40;3.10;;;;;;;13.00;57.87;100367.73;108724;1263;71367;-68
2023/06/13 01:29:55;;;;;;;8.40;3.00;;;;;;;12.92;58.28;100361.44;108833;1263;57053;-67
2023/06/13 01:32:46;;;;;;;11.50;3.20;;;;;;;12.86;58.37;100365.46;108638;1262;58833;-67
2023/06/13 01:35:37;;;;;;;10.20;3.50;;;;;;;12.80;58.55;100363.11;108684;1262;73308;-69
2023/06/13 01:38:26;;;;;;;10.80;3.20;;;;;;;12.74;58.79;100362.38;108648;1262;67179;-68
2023/06/13 01:41:15;;;;;;;10.70;3.00;;;;;;;12.68;59.16;100357.36;108771;1262;72461;-66
2023/06/13 01:44:05;;;;;;;14.10;3.40;;;;;;;12.63;59.05;100355.45;108758;1263;56944;-67
2023/06/13 01:47:28;;;;;;;8.70;2.90;;;;;;;12.59;59.10;100357.86;108801;1262;60121;-67
2023/06/13 01:50:19;;;;;;;10.50;3.20;;;;;;;12.56;59.33;100359.18;108848;1263;71028;-64
2023/06/13 01:53:31;;;;;;;8.60;3.30;;;;;;;12.55;59.47;100360.21;108815;1262;68945;-69
2023/06/13 01:56:22;;;;;;;8.80;2.90;;;;;;;12.54;59.47;100357.19;108679;1264;73860;-67
2023/06/13 01:59:15;;;;;;;12.10;3.10;;;;;;;12.53;59.46;100353.17;108782;1264;56895;-67
2023/06/13 02:02:04;;;;;;;9.20;3.00;;;;;;;12.54;59.42;100351.35;108940;1259;58922;-68
2023/06/13 02:04:55;;;;;;;11.90;3.00;;;;;;;12.55;59.24;100348.98;108949;1258;70616;-67
2023/06/13 02:07:44;;;;;;;9.80;2.90;;;;;;;12.56;59.25;100348.86;109002;1259;66620;-68
2023/06/13 02:10:32;;;;;;;9.80;3.10;;;;;;;12.58;59.17;100347.85;109324;1254;71474;-65
2023/06/13 02:13:24;;;;;;;9.40;2.90;;;;;;;12.59;59.06;100351.99;109390;1254;57688;-64
2023/06/13 02:16:12;;;;;;;9.70;2.90;;;;;;;12.60;59.14;100352.27;109215;1259;59171;-66
2023/06/13 02:19:01;;;;;;;9.50;2.90;;;;;;;12.62;59.27;100352.66;109263;1254;70795;-69
2023/06/13 02:21:50;;;;;;;6.90;2.30;;;;;;;12.64;59.28;100350.22;109253;1254;69222;-67
2023/06/13 02:24:38;;;;;;;14.50;3.50;;;;;;;12.67;59.29;100352.99;109119;1263;73061;-67
2023/06/13 02:27:26;;;;;;;8.90;3.00;;;;;;;12.70;59.30;100353.59;109207;1254;56807;-69
2023/06/13 02:30:14;;;;;;;8.20;2.70;;;;;;;12.73;59.37;100354.66;109307;1254;60377;-69
2023/06/13 02:33:03;;;;;;;8.30;3.00;;;;;;;12.73;59.27;100356.35;109290;1254;72211;-66
2023/06/13 02:35:51;;;;;;;11.70;3.40;;;;;;;12.74;59.77;100357.76;109038;1258;67926;-68
2023/06/13 02:38:39;;;;;;;8.80;2.90;;;;;;;12.74;60.27;100355.27;109062;1257;72732;-66
2023/06/13 02:41:28;;;;;;;9.20;3.30;;;;;;;12.73;60.41;100352.66;109115;1257;58123;-69
2023/06/13 02:44:17;;;;;;;10.20;3.50;;;;;;;12.72;60.57;100352.55;108988;1257;59105;-67
2023/06/13 02:47:05;;;;;;;9.30;3.00;;;;;;;12.72;60.78;100352.77;109083;1258;71906;-69
2023/06/13 02:49:54;;;;;;;8.90;2.60;;;;;;;12.73;61.01;100352.13;108960;1257;66284;-64
2023/06/13 02:52:44;;;;;;;8.40;3.00;;;;;;;12.76;60.98;100352.96;109017;1257;74318;-65
2023/06/13 02:55:32;;;;;;;9.40;3.10;;;;;;;12.78;60.90;100354.92;108934;1257;57142;-65
2023/06/13 02:58:21;;;;;;;9.20;3.10;;;;;;;12.78;61.25;100351.86;109079;1257;60060;-66
2023/06/13 03:01:09;;;;;;;6.50;2.50;;;;;;;12.76;61.41;100341.48;109033;1257;71381;-64
2023/06/13 03:03:57;;;;;;;7.30;2.50;;;;;;;12.71;61.68;100336.95;108989;1257;68960;-65
2023/06/13 03:06:46;;;;;;;9.50;2.90;;;;;;;12.66;62.05;100330.62;109210;1256;73462;-64
2023/06/13 03:09:34;;;;;;;8.00;3.20;;;;;;;12.59;62.19;100334.89;109352;1254;58082;-64
2023/06/13 03:12:22;;;;;;;8.20;3.10;;;;;;;12.56;62.58;100339.45;109397;1254;60071;-64
2023/06/13 03:15:12;;;;;;;8.60;2.60;;;;;;;12.52;62.70;100339.02;109224;1254;70964;-64
2023/06/13 03:18:00;;;;;;;10.30;2.90;;;;;;;12.46;62.97;100332.11;109263;1256;68088;-64
2023/06/13 03:20:49;;;;;;;8.80;2.90;;;;;;;12.42;63.52;100333.30;109379;1255;72322;-69
2023/06/13 03:23:40;;;;;;;8.70;2.80;;;;;;;12.38;63.70;100336.44;109214;1257;58618;-64
2023/06/13 03:26:28;;;;;;;9.50;3.30;;;;;;;12.33;63.79;100337.05;109384;1257;57699;-67
2023/06/13 03:29:17;;;;;;;9.40;2.80;;;;;;;12.28;64.38;100334.59;109400;1255;72405;-65
2023/06/13 03:32:06;;;;;;;7.70;2.90;;;;;;;12.25;64.31;100334.80;109237;1257;66386;-63
2023/06/13 03:34:55;;;;;;;14.00;3.20;;;;;;;12.21;64.90;100335.48;109053;1257;71160;-64
2023/06/13 03:37:43;;;;;;;9.10;3.00;;;;;;;12.18;64.80;100333.58;109177;1257;57817;-62
2023/06/13 03:40:34;;;;;;;8.20;3.20;;;;;;;12.16;65.02;100335.39;109228;1257;60359;-64
2023/06/13 03:43:23;;;;;;;8.20;3.10;;;;;;;12.15;65.16;100335.42;109170;1257;72107;-61
2023/06/13 03:46:11;;;;;;;8.50;3.10;;;;;;;12.15;65.56;100334.91;109284;1258;68178;-64
2023/06/13 03:49:03;;;;;;;8.00;3.00;;;;;;;12.17;65.60;100334.24;109208;1256;72753;-64
2023/06/13 03:51:52;;;;;;;8.50;3.30;;;;;;;12.19;65.42;100339.38;109260;1256;57226;-64
2023/06/13 03:54:41;;;;;;;9.90;3.30;;;;;;;12.21;65.87;100342.21;109249;1255;59151;-65
2023/06/13 03:57:31;;;;;;;12.70;3.50;;;;;;;12.23;65.88;100340.98;109205;1257;71330;-63
2023/06/13 04:00:21;;;;;;;7.50;2.70;;;;;;;12.28;65.17;100342.98;109198;1257;67718;-64
2023/06/13 04:03:13;;;;;;;8.60;3.00;;;;;;;12.33;65.02;100345.02;109319;1256;71702;-63
2023/06/13 04:06:01;;;;;;;7.60;3.00;;;;;;;12.38;65.28;100348.38;109268;1256;56951;-64
2023/06/13 04:08:49;;;;;;;7.50;2.80;;;;;;;12.44;65.27;100345.59;109267;1254;60226;-65
2023/06/13 04:11:37;;;;;;;9.80;3.10;;;;;;;12.52;64.79;100342.97;109380;1254;72285;-66
2023/06/13 04:14:25;;;;;;;8.20;3.10;;;;;;;12.63;64.53;100342.45;109298;1254;68067;-61
2023/06/13 04:17:13;;;;;;;9.20;2.80;;;;;;;12.75;63.37;100340.34;109255;1254;71935;-64
2023/06/13 04:20:04;;;;;;;9.00;2.80;;;;;;;12.92;62.77;100342.51;109410;1254;57226;-64
2023/06/13 04:22:54;;;;;;;10.10;2.90;;;;;;;13.14;62.37;100340.77;108552;1254;1003005;-61
2023/06/13 04:25:43;;;;;;;9.60;2.90;;;;;;;13.37;61.95;100343.20;109139;1254;72173;-65
2023/06/13 04:28:32;;;;;;;6.70;2.30;;;;;;;13.65;61.37;100349.48;109368;1254;66499;-64
2023/06/13 04:31:22;;;;;;;7.10;2.00;;;;;;;13.95;60.49;100345.41;109118;1254;72433;-64
2023/06/13 04:34:11;;;;;;;6.40;2.20;;;;;;;14.29;59.46;100343.53;109403;1254;57693;-61
2023/06/13 04:37:03;;;;;;;8.60;2.50;;;;;;;14.65;58.46;100336.43;109401;1254;60420;-62
2023/06/13 04:39:54;;;;;;;7.20;2.30;;;;;;;15.04;57.20;100334.43;109394;1254;72344;-62
2023/06/13 04:42:51;;;;;;;7.90;2.10;;;;;;;15.52;55.59;100335.95;109212;1254;67659;-64
2023/06/13 04:45:39;;;;;;;7.90;2.20;;;;;;;16.00;53.14;100337.27;109253;1254;72518;-60
2023/06/13 04:48:28;;;;;;;6.50;2.40;;;;;;;16.51;51.62;100337.75;109183;1254;57869;-64
2023/06/13 04:51:20;;;;;;;9.40;3.40;;;;;;;17.05;49.68;100335.27;109343;1254;59986;-67
2023/06/13 04:54:09;;;;;;;10.30;4.00;;;;;;;17.54;48.57;100337.86;109187;1254;72387;-64
2023/06/13 04:56:57;;;;;;;8.30;3.00;;;;;;;18.05;47.28;100337.80;109263;1254;67683;-67
2023/06/13 04:59:45;;;;;;;7.40;2.60;;;;;;;18.49;46.32;100339.17;109200;1254;72446;-63
2023/06/13 05:02:35;;;;;;;7.00;2.30;;;;;;;18.64;45.72;100333.36;109316;1254;57780;-67
2023/06/13 05:05:23;;;;;;;8.50;2.40;;;;;;;18.95;45.46;100329.04;109320;1254;58844;-65
2023/06/13 05:08:14;;;;;;;7.20;2.70;;;;;;;19.10;45.67;100328.64;109297;1254;70939;-64
2023/06/13 05:11:02;;;;;;;12.60;4.50;;;;;;;19.35;45.40;100332.20;109170;1254;66780;-65
2023/06/13 05:13:50;;;;;;;13.20;4.40;;;;;;;19.58;45.30;100336.02;109226;1254;71170;-69
2023/06/13 05:16:38;;;;;;;8.10;3.10;;;;;;;19.82;44.93;100339.62;109332;1254;57757;-62
2023/06/13 05:19:26;;;;;;;7.50;2.60;;;;;;;19.99;44.29;100339.69;109403;1254;58328;-67
2023/06/13 05:22:16;;;;;;;7.40;2.20;;;;;;;19.93;43.37;100339.46;109244;1254;70642;-66
2023/06/13 05:25:04;;;;;;;6.60;2.10;;;;;;;19.86;43.35;100340.39;109285;1254;67776;-66
2023/06/13 05:27:52;;;;;;;9.60;2.50;;;;;;;19.68;43.06;100345.82;109334;1254;71454;-67
2023/06/13 05:30:43;;;;;;;7.10;2.20;;;;;;;19.21;43.75;100349.38;109279;1254;57151;-69
2023/06/13 05:33:33;;;;;;;7.20;2.50;;;;;;;18.95;44.23;100350.58;109262;1254;58737;-70
2023/06/13 05:36:21;;;;;;;7.20;2.40;;;;;;;18.67;44.14;100360.03;109213;1254;70022;-68
2023/06/13 05:39:10;;;;;;;7.20;2.30;;;;;;;18.34;43.98;100360.62;109255;1254;67946;-69
2023/06/13 05:42:00;;;;;;;7.80;2.90;;;;;;;18.13;44.66;100359.63;109359;1254;72407;-79
2023/06/13 05:44:49;;;;;;;6.60;2.40;;;;;;;18.01;44.96;100357.48;109203;1254;57905;-76
2023/06/13 05:47:40;;;;;;;8.20;2.70;;;;;;;18.16;45.00;100360.61;109146;1254;59453;-75
2023/06/13 05:50:28;;;;;;;7.70;2.10;;;;;;;18.29;44.29;100360.09;109210;1254;71986;-77
2023/06/13 05:53:16;;;;;;;7.50;2.30;;;;;;;18.43;43.74;100359.91;109242;1255;66433;-73
2023/06/13 05:56:06;;;;;;;6.10;2.00;;;;;;;18.77;43.01;100359.83;109251;1254;71279;-73
2023/06/13 05:58:54;;;;;;;7.30;2.20;;;;;;;19.33;41.69;100357.42;109325;1254;56954;-73
2023/06/13 06:01:44;;;;;;;6.10;1.80;;;;;;;19.51;40.79;100356.67;109280;1254;60104;-74
2023/06/13 06:04:31;;;;;;;6.60;2.00;;;;;;;19.76;40.19;100354.23;109244;1253;70983;-73
2023/06/13 06:07:20;;;;;;;6.70;1.90;;;;;;;20.40;38.98;100355.85;109408;1254;68134;-68
2023/06/13 06:10:08;;;;;;;8.20;1.90;;;;;;;21.24;37.21;100356.06;109293;1254;72627;-67
2023/06/13 06:12:56;;;;;;;6.70;1.90;;;;;;;22.30;35.07;100354.06;109309;1254;56867;-69
2023/06/13 06:15:45;;;;;;;7.30;2.00;;;;;;;23.62;33.23;100344.04;109420;1254;58815;-68
2023/06/13 06:18:33;;;;;;;6.00;1.80;;;;;;;24.92;31.14;100342.37;109263;1254;70882;-66
2023/06/13 06:21:22;;;;;;;7.80;1.80;;;;;;;25.69;29.29;100340.98;109227;1254;66768;-70
2023/06/13 06:24:10;;;;;;;6.90;1.90;;;;;;;26.60;28.76;100345.23;109236;1254;72745;-69
2023/06/13 06:27:00;;;;;;;7.50;2.10;;;;;;;27.43;27.88;100341.48;109216;1254;58012;-67
2023/06/13 06:29:48;;;;;;;6.30;1.70;;;;;;;28.21;26.65;100337.38;109232;1254;58767;-68
2023/06/13 06:32:36;;;;;;;7.10;2.00;;;;;;;28.69;26.11;100342.52;109390;1254;72693;-69
2023/06/13 06:35:24;;;;;;;5.90;1.80;;;;;;;29.19;25.45;100343.52;109305;1254;68324;-68
2023/06/13 06:38:12;;;;;;;5.50;1.70;;;;;;;29.75;24.64;100342.17;109318;1254;71636;-70
2023/06/13 06:41:00;;;;;;;7.70;1.90;;;;;;;30.15;24.00;100343.11;109225;1254;57908;-66
2023/06/13 06:43:50;;;;;;;6.20;1.60;;;;;;;30.28;23.56;100344.41;109257;1254;59224;-67
2023/06/13 06:46:38;;;;;;;6.30;1.80;;;;;;;30.16;23.14;100336.94;109364;1254;72236;-67
2023/06/13 06:49:26;;;;;;;7.20;1.50;;;;;;;30.15;23.21;100339.17;109379;1253;67730;-66
2023/06/13 06:52:14;;;;;;;6.20;1.40;;;;;;;29.84;23.46;100343.98;109253;1254;71220;-67
2023/06/13 06:55:02;;;;;;;6.80;1.90;;;;;;;29.50;23.59;100344.06;109154;1254;56970;-68
2023/06/13 06:57:53;;;;;;;6.00;1.60;;;;;;;28.78;24.63;100345.40;109069;1254;59191;-67
2023/06/13 07:00:41;;;;;;;5.90;1.90;;;;;;;28.57;25.07;100344.73;109263;1254;71991;-68
2023/06/13 07:03:29;;;;;;;6.60;1.70;;;;;;;27.77;25.66;100345.41;109226;1254;67613;-68
2023/06/13 07:06:19;;;;;;;8.00;1.90;;;;;;;27.86;26.27;100344.14;109184;1254;72707;-67
2023/06/13 07:09:09;;;;;;;7.10;2.10;;;;;;;28.09;26.06;100343.66;109240;1254;56878;-69
2023/06/13 07:11:57;;;;;;;6.90;1.60;;;;;;;28.43;26.20;100342.52;109319;1254;59039;-65
2023/06/13 07:14:45;;;;;;;6.90;1.90;;;;;;;28.21;26.38;100342.42;109231;1254;72235;-67
2023/06/13 07:17:33;;;;;;;6.00;1.60;;;;;;;27.79;26.26;100342.87;109116;1253;220577;-69
2023/06/13 07:20:21;;;;;;;6.90;1.70;;;;;;;28.04;25.37;100340.06;109195;1254;71419;-68
2023/06/13 07:23:10;;;;;;;5.90;1.70;;;;;;;28.62;25.06;100341.98;109396;1254;56974;-66
2023/06/13 07:25:58;;;;;;;6.50;1.70;;;;;;;29.14;24.34;100345.31;109214;1254;58728;-68
2023/06/13 07:28:46;;;;;;;6.60;1.50;;;;;;;29.64;23.80;100339.79;109192;1254;72413;-71
2023/06/13 07:31:36;;;;;;;7.20;1.60;;;;;;;29.45;23.89;100342.46;109197;1254;68800;-68
2023/06/13 07:34:24;;;;;;;6.90;1.90;;;;;;;29.46;24.09;100343.21;109176;1254;72500;-67
2023/06/13 07:37:33;;;;;;;7.90;2.00;;;;;;;29.62;23.92;100340.12;109243;1254;57063;-68
2023/06/13 07:40:23;;;;;;;6.10;1.60;;;;;;;29.34;24.23;100344.14;109204;1254;59957;-68
2023/06/13 07:43:11;;;;;;;6.30;1.50;;;;;;;28.69;24.68;100346.38;109220;1253;72290;-69
2023/06/13 07:46:00;;;;;;;8.50;1.80;;;;;;;27.47;26.43;100344.16;109253;1254;67887;-66
2023/06/13 07:48:48;;;;;;;8.50;1.60;;;;;;;26.64;28.10;100351.21;109279;1254;72631;-68
2023/06/13 07:51:37;;;;;;;8.80;1.90;;;;;;;25.70;29.62;100347.44;109268;1254;58106;-66
2023/06/13 07:54:25;;;;;;;7.50;2.20;;;;;;;24.89;31.48;100351.64;109363;1254;60377;-70
2023/06/13 07:57:13;;;;;;;9.20;3.20;;;;;;;24.44;32.94;100350.11;109275;1254;73351;-69
2023/06/13 08:00:21;;;;;;;7.20;2.30;;;;;;;24.33;33.91;100354.00;109327;1254;67709;-68
2023/06/13 08:03:09;;;;;;;6.80;2.00;;;;;;;24.17;34.70;100353.70;109205;1254;72766;-68
2023/06/13 08:05:58;;;;;;;8.30;2.20;;;;;;;24.53;34.37;100353.12;109244;1254;59035;-69
2023/06/13 08:08:46;;;;;;;7.60;2.30;;;;;;;24.84;33.53;100347.74;109177;1254;60198;-67
2023/06/13 08:11:34;;;;;;;8.90;2.20;;;;;;;25.08;33.13;100345.05;109212;1254;73229;-67
2023/06/13 08:14:22;;;;;;;6.20;1.70;;;;;;;25.26;33.28;100348.88;109248;1254;66638;-67
2023/06/13 08:17:11;;;;;;;7.30;2.10;;;;;;;24.82;34.03;100353.52;109157;1254;74152;-69
2023/06/13 08:19:59;;;;;;;12.00;2.10;;;;;;;24.57;34.73;100349.33;109225;1258;56924;-65
2023/06/13 08:22:47;;;;;;;10.80;2.20;;;;;;;24.64;35.07;100347.90;109284;1254;60440;-67
2023/06/13 08:25:34;;;;;;;11.60;3.00;;;;;;;24.54;35.40;100346.59;109197;1253;72234;-70
2023/06/13 08:28:23;;;;;;;8.70;3.00;;;;;;;24.90;35.17;100348.79;109208;1258;67708;-68
2023/06/13 08:31:12;;;;;;;7.50;2.50;;;;;;;25.78;33.89;100340.00;109473;1254;72404;-67
2023/06/13 08:34:23;;;;;;;7.10;2.20;;;;;;;26.86;32.71;100337.02;109286;1254;57054;-68
2023/06/13 08:37:12;;;;;;;7.10;2.00;;;;;;;27.30;31.87;100327.84;109272;1254;60048;-68
2023/06/13 08:40:00;;;;;;;8.30;2.40;;;;;;;27.55;31.35;100329.70;109382;1254;73765;-67
2023/06/13 08:42:49;;;;;;;9.20;2.50;;;;;;;27.70;30.98;100330.38;109266;1254;68154;-66
2023/06/13 08:45:37;;;;;;;8.00;1.80;;;;;;;27.90;29.90;100330.48;109220;1254;72690;-68
2023/06/13 08:48:25;;;;;;;6.30;1.80;;;;;;;27.93;28.77;100335.19;109239;1254;57695;-68
2023/06/13 08:51:16;;;;;;;7.00;2.00;;;;;;;27.54;29.31;100334.64;109287;1254;60009;-70
2023/06/13 08:54:05;;;;;;;8.90;2.40;;;;;;;27.81;28.94;100334.77;109280;1254;70870;-71
2023/06/13 08:56:58;;;;;;;8.00;2.20;;;;;;;28.87;27.36;100330.59;109385;1254;68114;-71
2023/06/13 08:59:48;;;;;;;6.60;1.80;;;;;;;29.06;26.39;100333.84;109350;1253;72838;-73
2023/06/13 09:02:37;;;;;;;7.00;1.90;;;;;;;28.23;27.51;100329.46;109406;1254;56930;-69
2023/06/13 09:05:30;;;;;;;7.90;2.50;;;;;;;27.97;28.22;100333.00;109248;1253;60113;-71
2023/06/13 09:08:18;;;;;;;10.80;2.60;;;;;;;28.03;27.51;100330.55;109246;1254;70896;-71
2023/06/13 09:11:20;;;;;;;11.20;2.50;;;;;;;28.19;26.78;100336.72;109430;1254;67617;-72
2023/06/13 09:14:09;;;;;;;8.30;2.40;;;;;;;28.32;27.16;100337.91;109408;1256;72450;-69
2023/06/13 09:16:58;;;;;;;6.80;2.10;;;;;;;28.23;26.66;100339.57;109397;1254;57634;-70
2023/06/13 09:19:48;;;;;;;8.10;2.10;;;;;;;28.12;26.95;100338.45;109266;1254;58763;-70
2023/06/13 09:22:37;;;;;;;9.20;2.30;;;;;;;27.89;27.85;100340.20;109222;1254;73287;-69
2023/06/13 09:25:29;;;;;;;9.90;2.30;;;;;;;28.31;28.14;100342.38;109276;1254;69297;-70
2023/06/13 09:28:43;;;;;;;6.50;1.90;;;;;;;28.57;27.91;100336.88;109333;1254;72664;-72
2023/06/13 09:31:31;;;;;;;6.60;2.00;;;;;;;28.48;28.46;100339.52;109211;1253;57711;-68
2023/06/13 09:34:20;;;;;;;9.30;2.70;;;;;;;28.87;27.91;100338.55;109336;1254;59364;-73
2023/06/13 09:37:09;;;;;;;8.80;2.40;;;;;;;28.56;27.95;100340.34;109420;1254;72691;-70
2023/06/13 09:40:05;;;;;;;7.20;2.20;;;;;;;28.12;28.23;100333.94;109430;1254;67470;-71
2023/06/13 09:43:02;;;;;;;7.50;2.30;;;;;;;27.77;29.28;100334.02;109327;1254;71389;-70
2023/06/13 09:45:53;;;;;;;7.10;2.50;;;;;;;27.74;29.93;100328.83;109219;1254;57836;-72
2023/06/13 09:48:45;;;;;;;10.50;2.20;;;;;;;27.87;29.96;100335.63;109354;1254;60821;-71
2023/06/13 09:51:33;;;;;;;8.30;2.50;;;;;;;28.64;29.14;100331.67;109221;1254;71993;-72
2023/06/13 09:54:21;;;;;;;8.90;2.40;;;;;;;29.10;28.30;100322.69;109166;1254;66662;-71
2023/06/13 09:57:10;;;;;;;7.90;1.80;;;;;;;30.05;27.29;100320.13;109366;1254;72229;-71
2023/06/13 09:59:58;;;;;;;11.20;2.50;;;;;;;30.07;26.83;100316.50;109371;1254;56969;-70
2023/06/13 10:02:46;;;;;;;9.20;2.30;;;;;;;29.79;27.38;100316.99;109236;1254;59465;-69
2023/06/13 10:05:34;;;;;;;7.80;1.90;;;;;;;29.01;27.89;100319.12;109345;1254;71701;-70
2023/06/13 10:08:25;;;;;;;7.20;1.90;;;;;;;27.99;29.06;100319.00;109377;1254;67910;-69
2023/06/13 10:11:16;;;;;;;7.70;2.50;;;;;;;27.20;30.59;100319.65;109254;1254;72805;-71
2023/06/13 10:14:15;;;;;;;6.60;1.90;;;;;;;26.27;31.70;100322.91;109171;1254;56949;-70
2023/06/13 10:17:08;;;;;;;9.20;2.40;;;;;;;25.34;33.19;100317.62;109134;1254;60213;-70
2023/06/13 10:20:04;;;;;;;8.40;2.40;;;;;;;24.47;34.57;100320.92;109360;1254;71214;-72
2023/06/13 10:22:53;;;;;;;7.90;2.10;;;;;;;23.71;36.10;100323.01;109358;1254;68574;-72
2023/06/13 10:25:44;;;;;;;12.30;2.40;;;;;;;23.09;37.45;100320.09;109094;1254;72711;-70
2023/06/13 10:28:41;;;;;;;9.00;2.30;;;;;;;22.54;38.59;100329.64;109406;1254;56883;-70
2023/06/13 10:31:36;;;;;;;10.90;2.80;;;;;;;22.10;39.74;100321.59;109386;1254;60036;-72
2023/06/13 10:35:04;;;;;;;11.50;2.90;;;;;;;21.82;40.40;100322.20;109331;1254;71981;-69
2023/06/13 10:38:21;;;;;;;9.40;2.60;;;;;;;21.82;40.63;100324.54;109360;1254;66893;-73
2023/06/13 10:41:37;;;;;;;8.50;2.20;;;;;;;21.97;40.34;100321.92;109305;1254;72527;-71
2023/06/13 10:45:01;;;;;;;6.50;2.20;;;;;;;22.18;39.98;100319.19;109329;1254;57989;-75
2023/06/13 10:47:49;;;;;;;7.30;2.80;;;;;;;22.81;39.94;100314.19;109249;1254;58850;-73
2023/06/13 10:50:41;;;;;;;8.10;2.50;;;;;;;24.17;38.22;100311.98;109340;1254;72017;-72
2023/06/13 10:53:34;;;;;;;7.30;2.20;;;;;;;26.00;35.26;100305.92;109400;1254;68012;-72
2023/06/13 10:56:29;;;;;;;10.70;2.80;;;;;;;27.36;32.64;100299.57;109248;1254;72715;-70
2023/06/13 10:59:17;;;;;;;7.40;2.20;;;;;;;28.56;30.97;100293.80;109304;1254;57007;-72
2023/06/13 11:02:14;;;;;;;7.10;2.30;;;;;;;29.48;29.30;100298.41;109397;1254;60284;-74
2023/06/13 11:05:03;;;;;;;7.40;2.50;;;;;;;30.18;28.21;100304.41;109274;1254;72680;-75
2023/06/13 11:07:55;;;;;;;10.90;1.90;;;;;;;30.26;27.55;100302.08;108995;1257;67865;-69
2023/06/13 11:10:44;;;;;;;7.20;2.00;;;;;;;29.95;28.05;100292.02;108948;1257;71204;-73
2023/06/13 11:13:34;;;;;;;6.50;2.00;;;;;;;29.66;28.33;100288.30;109072;1257;58265;-72
2023/06/13 11:16:43;;;;;;;9.00;1.90;;;;;;;29.36;28.37;100288.26;108997;1257;59201;-71
2023/06/13 11:19:34;;;;;;;10.50;2.00;;;;;;;28.91;29.25;100288.77;109052;1257;71459;-71
2023/06/13 11:22:23;;;;;;;8.90;2.20;;;;;;;28.67;29.56;100291.69;109081;1257;66613;-70
2023/06/13 11:25:11;;;;;;;6.70;1.80;;;;;;;28.51;29.53;100282.88;109102;1257;72782;-73
2023/06/13 11:28:00;;;;;;;7.50;2.30;;;;;;;28.30;30.11;100284.10;108941;1257;57798;-73
2023/06/13 11:30:48;;;;;;;7.90;2.20;;;;;;;28.10;29.92;100285.32;109044;1257;59068;-72
2023/06/13 11:33:45;;;;;;;7.20;2.20;;;;;;;27.74;30.42;100276.98;108986;1257;72389;-70
2023/06/13 11:36:41;;;;;;;8.30;2.20;;;;;;;27.18;31.28;100277.46;109062;1257;68069;-72
2023/06/13 11:39:38;;;;;;;7.10;2.10;;;;;;;26.54;32.41;100276.85;109304;1254;72759;-71
2023/06/13 11:42:30;;;;;;;7.80;2.00;;;;;;;25.96;33.25;100271.23;109229;1254;56900;-71
2023/06/13 11:45:23;;;;;;;9.40;2.50;;;;;;;25.54;34.01;100271.81;109259;1254;59250;-71
2023/06/13 11:48:17;;;;;;;8.80;1.90;;;;;;;25.07;34.42;100274.86;109302;1254;70447;-70
2023/06/13 11:51:12;;;;;;;10.10;2.40;;;;;;;24.57;35.92;100275.04;109201;1254;67916;-72
2023/06/13 11:54:02;;;;;;;9.10;2.20;;;;;;;24.07;37.14;100275.98;109188;1254;72612;-68
2023/06/13 11:56:53;;;;;;;7.40;2.10;;;;;;;23.64;38.24;100272.98;109284;1254;56921;-72
2023/06/13 11:59:43;;;;;;;9.50;2.60;;;;;;;23.25;39.42;100267.38;109309;1254;60046;-71
2023/06/13 12:02:33;;;;;;;7.70;2.40;;;;;;;22.93;39.54;100267.39;109185;1254;72284;-71
2023/06/13 12:05:22;;;;;;;8.80;2.20;;;;;;;22.61;39.68;100262.09;109248;1254;66426;-70
2023/06/13 12:08:12;;;;;;;6.50;2.10;;;;;;;22.33;39.06;100270.83;109218;1254;72794;-74
2023/06/13 12:11:08;;;;;;;6.30;2.20;;;;;;;22.15;39.34;100268.99;109254;1254;57794;-72
2023/06/13 12:14:12;;;;;;;7.30;2.30;;;;;;;22.04;40.10;100271.02;109398;1254;58727;-69
2023/06/13 12:17:02;;;;;;;6.20;2.00;;;;;;;21.94;39.76;100268.11;109254;1254;73289;-67
2023/06/13 12:20:11;;;;;;;8.00;2.50;;;;;;;21.94;40.26;100275.56;109079;1254;67928;-70
2023/06/13 12:23:01;;;;;;;7.70;2.00;;;;;;;21.99;40.83;100276.99;109172;1254;72322;-66
2023/06/13 12:25:51;;;;;;;7.80;2.70;;;;;;;22.02;40.61;100279.59;109218;1254;57836;-71
2023/06/13 12:28:41;;;;;;;10.00;2.40;;;;;;;22.04;40.40;100279.16;109332;1254;60500;-71
2023/06/13 12:31:41;;;;;;;7.80;2.30;;;;;;;21.98;41.14;100275.04;109250;1254;71212;-68
2023/06/13 12:34:32;;;;;;;9.30;2.50;;;;;;;21.99;41.60;100276.00;109350;1254;66618;-71
2023/06/13 12:37:25;;;;;;;11.50;2.70;;;;;;;21.94;41.89;100275.90;109373;1254;72379;-72
2023/06/13 12:40:14;;;;;;;11.80;4.80;;;;;;;21.69;41.92;100279.27;109233;1254;57989;-72
2023/06/13 12:43:04;;;;;;;14.80;6.00;;;;;;;21.54;42.76;100276.64;109118;1256;60417;-68
2023/06/13 12:45:58;;;;;;;21.90;7.30;;;;;;;21.40;43.99;100276.45;109071;1256;71053;-73
2023/06/13 12:48:48;;;;;;;18.40;7.30;;;;;;;21.25;44.58;100275.69;109118;1256;67889;-68
2023/06/13 12:51:46;;;;;;;12.70;4.90;;;;;;;21.31;44.45;100272.83;109013;1256;72553;-69
2023/06/13 12:54:35;;;;;;;10.30;4.20;;;;;;;21.49;44.19;100271.29;109087;1256;56980;-70
2023/06/13 12:57:24;;;;;;;13.40;5.00;;;;;;;21.47;44.52;100273.27;109083;1256;59089;-71
2023/06/13 13:00:19;;;;;;;15.10;4.90;;;;;;;21.29;44.64;100269.59;109105;1256;72089;-66
2023/06/13 13:03:07;;;;;;;11.90;4.10;;;;;;;21.07;45.16;100270.20;109066;1256;66635;-71
2023/06/13 13:05:56;;;;;;;12.50;4.00;;;;;;;20.98;45.36;100262.85;109195;1255;71615;-69